createdAt,value
2023-03-18T00:00:23.637Z,9.70
2023-03-18T00:01:23.628Z,8.60
2023-03-18T00:02:23.665Z,11.20
2023-03-18T00:03:23.620Z,13.80
2023-03-18T00:04:23.634Z,11.40
2023-03-18T00:05:23.594Z,8.10
2023-03-18T00:06:23.587Z,9.10
2023-03-18T00:07:23.581Z,7.30
2023-03-18T00:08:23.569Z,7.20
2023-03-18T00:09:23.582Z,6.30
2023-03-18T00:10:23.558Z,8.40
2023-03-18T00:11:23.549Z,5.40
2023-03-18T00:12:23.532Z,8.50
2023-03-18T00:13:23.525Z,8.90
2023-03-18T00:14:23.552Z,8.80
2023-03-18T00:15:23.551Z,10.70
2023-03-18T00:16:23.587Z,6.80
2023-03-18T00:17:23.616Z,9.10
2023-03-18T00:18:23.497Z,11.50
2023-03-18T00:19:23.506Z,8.00
2023-03-18T00:20:23.480Z,6.70
2023-03-18T00:21:23.456Z,7.90
2023-03-18T00:22:24.469Z,7.40
2023-03-18T00:23:23.464Z,7.50
2023-03-18T00:24:23.549Z,8.90
2023-03-18T00:25:23.461Z,6.40
2023-03-18T00:26:23.437Z,6.20
2023-03-18T00:27:23.430Z,8.20
2023-03-18T00:28:23.411Z,9.20
2023-03-18T00:29:23.440Z,8.60
2023-03-18T00:30:23.410Z,6.90
2023-03-18T00:31:23.541Z,7.90
2023-03-18T00:32:23.390Z,6.60
2023-03-18T00:33:23.378Z,4.80
2023-03-18T00:34:23.394Z,6.60
2023-03-18T00:35:23.379Z,6.40
2023-03-18T00:36:23.366Z,9.60
2023-03-18T00:37:23.348Z,8.20
2023-03-18T00:38:23.339Z,6.00
2023-03-18T00:39:23.360Z,6.00
2023-03-18T00:40:23.333Z,5.80
2023-03-18T00:41:23.332Z,7.00
2023-03-18T00:42:23.323Z,6.50
2023-03-18T00:43:23.315Z,5.40
2023-03-18T00:44:23.331Z,5.30
2023-03-18T00:45:23.292Z,5.10
2023-03-18T00:46:23.381Z,7.30
2023-03-18T00:47:23.291Z,7.90
2023-03-18T00:48:23.276Z,6.60
2023-03-18T00:49:23.313Z,7.00
2023-03-18T00:50:23.262Z,6.70
2023-03-18T00:51:23.278Z,7.30
2023-03-18T00:52:23.253Z,5.70
2023-03-18T00:53:23.230Z,7.20
2023-03-18T00:54:23.257Z,7.80
2023-03-18T00:55:23.213Z,5.20
2023-03-18T00:56:23.215Z,6.30
2023-03-18T00:57:23.198Z,6.30
2023-03-18T00:58:23.206Z,6.50
2023-03-18T00:59:23.187Z,6.50
2023-03-18T01:00:23.216Z,5.80
2023-03-18T01:01:23.234Z,8.00
2023-03-18T01:02:23.195Z,8.10
2023-03-18T01:03:23.158Z,8.10
2023-03-18T01:04:23.151Z,6.20
2023-03-18T01:05:23.171Z,8.30
2023-03-18T01:06:23.140Z,7.40
2023-03-18T01:07:23.128Z,7.00
2023-03-18T01:08:23.119Z,8.50
2023-03-18T01:09:23.124Z,6.60
2023-03-18T01:10:23.128Z,5.50
2023-03-18T01:11:23.093Z,7.50
2023-03-18T01:12:23.089Z,6.90
2023-03-18T01:13:23.082Z,8.60
2023-03-18T01:14:23.090Z,6.30
2023-03-18T01:15:23.090Z,7.50
2023-03-18T01:16:23.097Z,7.50
2023-03-18T01:17:23.055Z,5.90
2023-03-18T01:18:23.046Z,8.10
2023-03-18T01:19:23.292Z,6.80
2023-03-18T01:20:23.052Z,7.10
2023-03-18T01:21:23.024Z,6.80
2023-03-18T01:22:23.015Z,7.70
2023-03-18T01:23:23.002Z,7.10
2023-03-18T01:24:23.003Z,8.70
2023-03-18T01:25:23.013Z,6.70
2023-03-18T01:26:22.990Z,8.10
2023-03-18T01:27:22.979Z,6.80
2023-03-18T01:28:22.997Z,5.80
2023-03-18T01:29:22.962Z,8.50
2023-03-18T01:30:22.977Z,5.70
2023-03-18T01:31:22.979Z,7.50
2023-03-18T01:32:22.940Z,5.60
2023-03-18T01:33:22.927Z,8.40
2023-03-18T01:34:22.928Z,6.10
2023-03-18T01:35:22.973Z,14.80
2023-03-18T01:36:22.908Z,11.70
2023-03-18T01:38:08.020Z,7.00
2023-03-18T01:39:08.052Z,7.10
2023-03-18T01:40:08.056Z,7.60
2023-03-18T01:41:08.027Z,5.60
2023-03-18T01:42:08.014Z,6.90
2023-03-18T01:43:08.017Z,6.10
2023-03-18T01:44:08.001Z,9.80
2023-03-18T01:45:08.027Z,6.80
2023-03-18T01:46:08.063Z,6.50
2023-03-18T01:47:08.038Z,5.10
2023-03-18T01:48:07.981Z,6.00
2023-03-18T01:49:07.981Z,6.10
2023-03-18T01:50:07.981Z,6.40
2023-03-18T01:51:07.962Z,6.00
2023-03-18T01:52:07.948Z,7.30
2023-03-18T01:53:07.959Z,8.30
2023-03-18T01:54:07.932Z,10.00
2023-03-18T01:55:09.077Z,5.90
2023-03-18T01:56:09.061Z,6.70
2023-03-18T01:57:09.043Z,7.50
2023-03-18T01:58:09.030Z,8.20
2023-03-18T01:59:09.026Z,6.70
2023-03-18T02:00:09.047Z,7.50
2023-03-18T02:01:09.034Z,7.20
2023-03-18T02:02:09.006Z,5.80
2023-03-18T02:03:09.010Z,5.20
2023-03-18T02:04:08.992Z,7.40
2023-03-18T02:05:09.001Z,6.70
2023-03-18T02:06:08.972Z,6.90
2023-03-18T02:07:08.961Z,7.20
2023-03-18T02:08:08.961Z,6.90
2023-03-18T02:09:08.953Z,8.30
2023-03-18T02:10:09.785Z,5.60
2023-03-18T02:11:08.933Z,5.40
2023-03-18T02:12:08.936Z,6.90
2023-03-18T02:13:08.922Z,5.50
2023-03-18T02:14:08.913Z,5.80
2023-03-18T02:15:08.937Z,6.80
2023-03-18T02:16:08.897Z,6.40
2023-03-18T02:17:08.880Z,10.40
2023-03-18T02:18:08.877Z,9.40
2023-03-18T02:19:08.871Z,6.20
2023-03-18T02:20:08.902Z,5.60
2023-03-18T02:21:08.865Z,7.90
2023-03-18T02:22:08.852Z,6.30
2023-03-18T02:23:08.843Z,8.30
2023-03-18T02:24:08.825Z,7.50
2023-03-18T02:25:08.857Z,9.80
2023-03-18T02:26:08.821Z,6.00
2023-03-18T02:27:08.808Z,10.10
2023-03-18T02:28:08.801Z,7.20
2023-03-18T02:29:08.796Z,6.50
2023-03-18T02:30:08.810Z,7.10
2023-03-18T02:31:08.855Z,5.10
2023-03-18T02:32:08.782Z,7.90
2023-03-18T02:33:08.923Z,10.60
2023-03-18T02:34:08.762Z,7.70
2023-03-18T02:35:08.787Z,9.90
2023-03-18T02:36:08.754Z,11.10
2023-03-18T02:37:08.740Z,6.80
2023-03-18T02:38:08.729Z,9.70
2023-03-18T02:39:08.724Z,8.90
2023-03-18T02:40:08.747Z,9.10
2023-03-18T02:41:08.700Z,6.40
2023-03-18T02:42:08.693Z,6.90
2023-03-18T02:43:08.687Z,7.20
2023-03-18T02:44:08.679Z,7.80
2023-03-18T02:45:08.710Z,7.80
2023-03-18T02:46:08.676Z,10.40
2023-03-18T02:47:08.660Z,10.40
2023-03-18T02:48:08.656Z,10.50
2023-03-18T02:49:08.638Z,9.00
2023-03-18T02:50:08.635Z,10.20
2023-03-18T02:51:08.652Z,7.60
2023-03-18T02:52:08.626Z,9.00
2023-03-18T02:53:08.611Z,8.20
2023-03-18T02:54:08.614Z,8.80
2023-03-18T02:55:08.602Z,8.70
2023-03-18T02:56:08.627Z,10.30
2023-03-18T02:57:08.588Z,9.20
2023-03-18T02:58:08.582Z,8.90
2023-03-18T02:59:08.574Z,10.90
2023-03-18T03:00:08.564Z,8.50
2023-03-18T03:01:08.621Z,9.30
2023-03-18T03:02:08.587Z,10.60
2023-03-18T03:03:08.725Z,8.30
2023-03-18T03:04:08.542Z,11.10
2023-03-18T03:05:08.538Z,9.20
2023-03-18T03:06:08.560Z,10.40
2023-03-18T03:07:08.518Z,11.50
2023-03-18T03:08:08.520Z,10.50
2023-03-18T03:09:08.503Z,8.50
2023-03-18T03:10:08.485Z,10.40
2023-03-18T03:11:09.512Z,10.00
2023-03-18T03:12:08.483Z,10.70
2023-03-18T03:13:08.487Z,8.60
2023-03-18T03:14:08.482Z,10.40
2023-03-18T03:15:08.468Z,9.40
2023-03-18T03:16:08.511Z,10.30
2023-03-18T03:17:08.452Z,9.70
2023-03-18T03:18:08.434Z,9.40
2023-03-18T03:19:08.433Z,9.80
2023-03-18T03:20:08.422Z,9.70
2023-03-18T03:21:08.440Z,8.50
2023-03-18T03:22:08.421Z,9.70
2023-03-18T03:23:08.401Z,9.50
2023-03-18T03:24:08.403Z,11.70
2023-03-18T03:25:08.387Z,8.90
2023-03-18T03:26:08.400Z,10.70
2023-03-18T03:27:08.375Z,8.50
2023-03-18T03:28:08.364Z,11.40
2023-03-18T03:29:08.353Z,9.60
2023-03-18T03:30:08.358Z,10.30
2023-03-18T03:31:08.382Z,10.00
2023-03-18T03:32:08.338Z,9.20
2023-03-18T03:33:08.364Z,9.10
2023-03-18T03:34:08.319Z,10.70
2023-03-18T03:35:08.316Z,8.70
2023-03-18T03:36:08.367Z,8.80
2023-03-18T03:37:08.303Z,9.80
2023-03-18T03:38:08.286Z,7.70
2023-03-18T03:39:09.293Z,7.70
2023-03-18T03:40:08.267Z,7.30
2023-03-18T03:41:08.305Z,9.90
2023-03-18T03:42:08.266Z,7.50
2023-03-18T03:43:08.252Z,7.70
2023-03-18T03:44:08.255Z,8.70
2023-03-18T03:45:08.241Z,11.10
2023-03-18T03:46:08.306Z,8.90
2023-03-18T03:47:08.232Z,8.20
2023-03-18T03:48:08.213Z,8.70
2023-03-18T03:49:08.209Z,8.20
2023-03-18T03:50:08.210Z,7.90
2023-03-18T03:51:08.326Z,8.20
2023-03-18T03:52:08.190Z,10.20
2023-03-18T03:53:08.179Z,9.80
2023-03-18T03:54:08.169Z,8.80
2023-03-18T03:55:08.163Z,9.50
2023-03-18T03:56:08.183Z,11.00
2023-03-18T03:57:08.148Z,8.10
2023-03-18T03:58:08.149Z,10.80
2023-03-18T03:59:08.132Z,9.40
2023-03-18T04:00:08.123Z,9.10
2023-03-18T04:01:08.138Z,9.20
2023-03-18T04:02:08.108Z,8.10
2023-03-18T04:03:08.099Z,8.00
2023-03-18T04:04:08.150Z,7.60
2023-03-18T04:05:08.081Z,7.10
2023-03-18T04:06:08.121Z,9.90
2023-03-18T04:07:08.070Z,7.90
2023-03-18T04:08:08.060Z,8.70
2023-03-18T04:09:08.049Z,9.50
2023-03-18T04:10:08.042Z,7.10
2023-03-18T04:11:08.081Z,8.50
2023-03-18T04:12:08.029Z,8.10
2023-03-18T04:13:08.022Z,10.60
2023-03-18T04:14:08.014Z,9.50
2023-03-18T04:15:08.010Z,7.80
2023-03-18T04:16:08.074Z,7.70
2023-03-18T04:17:08.016Z,10.80
2023-03-18T04:18:07.980Z,6.10
2023-03-18T04:19:07.971Z,6.30
2023-03-18T04:20:07.963Z,9.40
2023-03-18T04:21:07.957Z,8.50
2023-03-18T04:22:07.979Z,6.50
2023-03-18T04:23:07.963Z,7.20
2023-03-18T04:24:07.941Z,8.20
2023-03-18T04:25:07.942Z,10.50
2023-03-18T04:26:07.920Z,7.20
2023-03-18T04:27:07.940Z,6.00
2023-03-18T04:28:07.904Z,7.10
2023-03-18T04:29:07.899Z,7.20
2023-03-18T04:30:07.894Z,8.20
2023-03-18T04:31:07.966Z,7.40
2023-03-18T04:32:07.895Z,6.50
2023-03-18T04:33:07.964Z,8.40
2023-03-18T04:34:07.862Z,8.20
2023-03-18T04:35:07.865Z,5.50
2023-03-18T04:36:07.857Z,6.30
2023-03-18T04:37:07.868Z,8.00
2023-03-18T04:38:07.826Z,6.10
2023-03-18T04:39:07.810Z,5.30
2023-03-18T04:40:07.812Z,5.90
2023-03-18T04:41:08.804Z,6.30
2023-03-18T04:42:07.822Z,9.40
2023-03-18T04:43:07.790Z,6.90
2023-03-18T04:44:07.795Z,8.20
2023-03-18T04:45:07.776Z,7.20
2023-03-18T04:46:07.765Z,7.10
2023-03-18T04:47:07.795Z,10.10
2023-03-18T04:48:07.764Z,8.30
2023-03-18T04:49:07.760Z,7.30
2023-03-18T04:50:07.739Z,9.80
2023-03-18T04:51:07.746Z,7.60
2023-03-18T04:52:07.746Z,9.20
2023-03-18T04:53:07.723Z,7.00
2023-03-18T04:54:07.707Z,11.80
2023-03-18T04:55:07.696Z,8.90
2023-03-18T04:56:07.690Z,10.20
2023-03-18T04:57:07.701Z,9.50
2023-03-18T04:58:07.677Z,11.20
2023-03-18T04:59:07.668Z,9.70
2023-03-18T05:00:09.661Z,8.20
2023-03-18T05:01:07.688Z,7.80
2023-03-18T05:02:07.669Z,6.30
2023-03-18T05:03:07.638Z,11.30
2023-03-18T05:04:07.685Z,10.60
2023-03-18T05:05:07.658Z,7.50
2023-03-18T05:06:07.613Z,8.30
2023-03-18T05:07:07.639Z,10.30
2023-03-18T05:08:07.619Z,12.10
2023-03-18T05:09:08.590Z,9.40
2023-03-18T05:10:07.590Z,10.60
2023-03-18T05:11:07.577Z,8.70
2023-03-18T05:12:07.593Z,9.50
2023-03-18T05:13:07.560Z,8.20
2023-03-18T05:14:08.555Z,7.50
2023-03-18T05:15:07.546Z,9.20
2023-03-18T05:16:07.557Z,9.40
2023-03-18T05:17:07.560Z,8.70
2023-03-18T05:18:07.555Z,9.80
2023-03-18T05:19:07.523Z,9.80
2023-03-18T05:20:07.515Z,8.00
2023-03-18T05:21:07.518Z,10.10
2023-03-18T05:22:07.516Z,8.90
2023-03-18T05:23:07.479Z,8.90
2023-03-18T05:24:07.479Z,9.90
2023-03-18T05:25:07.473Z,9.30
2023-03-18T05:26:07.461Z,11.50
2023-03-18T05:27:07.538Z,9.20
2023-03-18T05:28:10.138Z,6.90
2023-03-18T05:29:07.449Z,8.90
2023-03-18T05:30:07.443Z,8.10
2023-03-18T05:31:07.440Z,8.90
2023-03-18T05:32:07.490Z,8.90
2023-03-18T05:33:07.457Z,8.30
2023-03-18T05:34:07.418Z,8.30
2023-03-18T05:35:07.386Z,10.50
2023-03-18T05:36:07.417Z,10.10
2023-03-18T05:37:07.400Z,9.80
2023-03-18T05:38:07.362Z,11.60
2023-03-18T05:39:07.359Z,10.10
2023-03-18T05:40:07.351Z,10.80
2023-03-18T05:41:07.355Z,9.80
2023-03-18T05:42:07.360Z,8.00
2023-03-18T05:43:07.330Z,9.60
2023-03-18T05:44:07.339Z,8.30
2023-03-18T05:45:07.312Z,10.00
2023-03-18T05:46:07.383Z,12.20
2023-03-18T05:47:07.339Z,11.40
2023-03-18T05:48:07.311Z,8.50
2023-03-18T05:49:07.279Z,10.30
2023-03-18T05:50:07.269Z,9.40
2023-03-18T05:51:07.262Z,12.70
2023-03-18T05:52:07.299Z,9.40
2023-03-18T05:53:07.247Z,13.20
2023-03-18T05:54:07.239Z,10.30
2023-03-18T05:55:07.232Z,14.60
2023-03-18T05:56:07.223Z,12.80
2023-03-18T05:57:07.218Z,10.60
2023-03-18T05:58:07.239Z,11.70
2023-03-18T05:59:07.200Z,12.90
2023-03-18T06:00:07.188Z,9.50
2023-03-18T06:01:07.195Z,12.70
2023-03-18T06:02:07.201Z,8.00
2023-03-18T06:03:07.298Z,7.90
2023-03-18T06:04:07.160Z,10.50
2023-03-18T06:05:07.155Z,8.40
2023-03-18T06:06:07.147Z,7.40
2023-03-18T06:07:07.143Z,11.60
2023-03-18T06:08:07.306Z,10.90
2023-03-18T06:09:07.118Z,10.00
2023-03-18T06:10:07.116Z,10.30
2023-03-18T06:11:07.114Z,9.20
2023-03-18T06:12:07.099Z,9.40
2023-03-18T06:13:07.118Z,11.40
2023-03-18T06:14:07.098Z,9.50
2023-03-18T06:15:07.076Z,10.50
2023-03-18T06:16:07.070Z,10.00
2023-03-18T06:17:07.065Z,10.10
2023-03-18T06:18:07.079Z,10.10
2023-03-18T06:19:07.049Z,8.60
2023-03-18T06:20:07.041Z,9.40
2023-03-18T06:21:07.052Z,10.90
2023-03-18T06:22:07.026Z,11.60
2023-03-18T06:23:07.040Z,7.00
2023-03-18T06:24:07.006Z,7.00
2023-03-18T06:25:07.005Z,8.20
2023-03-18T06:26:06.994Z,10.20
2023-03-18T06:27:06.984Z,9.50
2023-03-18T06:28:07.005Z,7.60
2023-03-18T06:29:06.977Z,10.80
2023-03-18T06:30:06.963Z,7.70
2023-03-18T06:31:06.993Z,7.00
2023-03-18T06:32:06.947Z,7.80
2023-03-18T06:33:07.089Z,9.00
2023-03-18T06:34:06.934Z,5.90
2023-03-18T06:35:06.926Z,7.30
2023-03-18T06:36:06.952Z,8.30
2023-03-18T06:37:06.918Z,6.80
2023-03-18T06:38:06.934Z,9.10
2023-03-18T06:39:06.886Z,8.80
2023-03-18T06:40:06.883Z,8.40
2023-03-18T06:41:06.874Z,7.30
2023-03-18T06:42:06.870Z,9.50
2023-03-18T06:43:06.901Z,11.60
2023-03-18T06:44:06.841Z,8.30
2023-03-18T06:45:07.836Z,7.40
2023-03-18T06:46:07.933Z,6.90
2023-03-18T06:47:06.828Z,8.10
2023-03-18T06:48:06.844Z,7.20
2023-03-18T06:49:06.813Z,7.20
2023-03-18T06:50:06.803Z,6.80
2023-03-18T06:51:06.801Z,7.60
2023-03-18T06:52:06.783Z,6.20
2023-03-18T06:53:06.805Z,6.50
2023-03-18T06:54:06.770Z,7.20
2023-03-18T06:55:06.785Z,10.80
2023-03-18T06:56:06.756Z,10.40
2023-03-18T06:57:06.770Z,10.00
2023-03-18T06:58:06.765Z,10.80
2023-03-18T06:59:06.735Z,9.80
2023-03-18T07:00:06.744Z,7.80
2023-03-18T07:01:06.809Z,6.80
2023-03-18T07:02:06.708Z,7.60
2023-03-18T07:03:06.735Z,8.50
2023-03-18T07:04:06.747Z,7.30
2023-03-18T07:05:06.686Z,7.20
2023-03-18T07:06:06.674Z,7.10
2023-03-18T07:07:06.666Z,6.40
2023-03-18T07:08:06.714Z,7.80
2023-03-18T07:09:06.652Z,10.20
2023-03-18T07:10:06.639Z,5.10
2023-03-18T07:11:06.631Z,6.80
2023-03-18T07:12:06.625Z,8.70
2023-03-18T07:13:06.645Z,5.40
2023-03-18T07:14:06.608Z,9.70
2023-03-18T07:15:06.600Z,8.20
2023-03-18T07:16:06.642Z,6.90
2023-03-18T07:17:06.600Z,5.60
2023-03-18T07:18:06.621Z,6.50
2023-03-18T07:19:06.565Z,8.60
2023-03-18T07:20:06.560Z,6.60
2023-03-18T07:21:06.548Z,7.60
2023-03-18T07:22:06.544Z,6.20
2023-03-18T07:23:06.559Z,5.20
2023-03-18T07:24:06.523Z,6.10
2023-03-18T07:25:06.520Z,6.70
2023-03-18T07:26:06.507Z,7.80
2023-03-18T07:27:06.498Z,7.20
2023-03-18T07:28:06.518Z,6.80
2023-03-18T07:29:06.488Z,5.80
2023-03-18T07:30:06.492Z,6.00
2023-03-18T07:31:06.488Z,8.80
2023-03-18T07:32:06.466Z,8.10
2023-03-18T07:33:06.568Z,6.90
2023-03-18T07:34:06.446Z,9.50
2023-03-18T07:35:06.458Z,4.70
2023-03-18T07:36:06.487Z,6.80
2023-03-18T07:37:06.422Z,6.80
2023-03-18T07:38:06.441Z,6.40
2023-03-18T07:39:06.420Z,7.70
2023-03-18T07:40:06.403Z,5.10
2023-03-18T07:41:06.394Z,6.50
2023-03-18T07:42:06.388Z,9.30
2023-03-18T07:43:06.379Z,5.70
2023-03-18T07:44:06.396Z,7.60
2023-03-18T07:45:06.356Z,7.70
2023-03-18T07:46:06.397Z,6.10
2023-03-18T07:47:06.347Z,8.20
2023-03-18T07:48:06.395Z,6.10
2023-03-18T07:49:06.357Z,6.00
2023-03-18T07:50:06.331Z,6.90
2023-03-18T07:51:06.312Z,5.90
2023-03-18T07:52:06.302Z,6.50
2023-03-18T07:53:07.297Z,5.00
2023-03-18T07:54:06.316Z,5.50
2023-03-18T07:55:06.295Z,6.10
2023-03-18T07:56:06.278Z,6.40
2023-03-18T07:57:06.290Z,5.90
2023-03-18T07:58:06.264Z,6.40
2023-03-18T07:59:06.281Z,4.70
2023-03-18T08:00:06.254Z,5.90
2023-03-18T08:01:06.241Z,7.50
2023-03-18T08:02:06.233Z,4.80
2023-03-18T08:03:06.230Z,5.60
2023-03-18T08:04:06.320Z,5.70
2023-03-18T08:05:06.252Z,3.80
2023-03-18T08:06:06.209Z,6.70
2023-03-18T08:07:06.195Z,5.80
2023-03-18T08:08:06.186Z,5.90
2023-03-18T08:09:06.206Z,6.80
2023-03-18T08:10:06.172Z,6.20
2023-03-18T08:11:06.165Z,5.80
2023-03-18T08:12:06.160Z,7.00
2023-03-18T08:13:06.155Z,7.10
2023-03-18T08:14:06.167Z,5.50
2023-03-18T08:15:06.136Z,6.80
2023-03-18T08:16:06.153Z,6.30
2023-03-18T08:17:06.116Z,6.30
2023-03-18T08:18:09.120Z,5.90
2023-03-18T08:19:07.132Z,5.90
2023-03-18T08:20:06.099Z,5.20
2023-03-18T08:21:06.109Z,4.80
2023-03-18T08:22:06.085Z,5.90
2023-03-18T08:23:06.078Z,5.30
2023-03-18T08:24:06.093Z,5.90
2023-03-18T08:25:06.058Z,6.10
2023-03-18T08:26:06.053Z,5.40
2023-03-18T08:27:06.043Z,5.60
2023-03-18T08:28:06.036Z,3.70
2023-03-18T08:29:06.059Z,5.70
2023-03-18T08:30:06.035Z,4.70
2023-03-18T08:31:06.035Z,4.70
2023-03-18T08:32:06.008Z,4.30
2023-03-18T08:33:06.059Z,5.30
2023-03-18T08:34:06.016Z,4.10
2023-03-18T08:35:05.985Z,5.80
2023-03-18T08:36:05.996Z,6.30
2023-03-18T08:37:05.975Z,5.20
2023-03-18T08:38:05.963Z,6.20
2023-03-18T08:39:05.998Z,4.70
2023-03-18T08:40:05.952Z,5.30
2023-03-18T08:41:05.948Z,6.10
2023-03-18T08:42:05.933Z,5.00
2023-03-18T08:43:05.922Z,4.70
2023-03-18T08:44:05.943Z,5.90
2023-03-18T08:45:05.918Z,4.40
2023-03-18T08:46:06.047Z,5.50
2023-03-18T08:47:05.900Z,4.30
2023-03-18T08:48:05.895Z,4.60
2023-03-18T08:49:05.920Z,6.70
2023-03-18T08:50:05.900Z,3.30
2023-03-18T08:51:05.866Z,4.00
2023-03-18T08:52:05.871Z,7.90
2023-03-18T08:53:05.877Z,5.80
2023-03-18T08:54:05.873Z,3.20
2023-03-18T08:55:05.837Z,5.00
2023-03-18T08:56:05.833Z,6.30
2023-03-18T08:57:05.827Z,4.50
2023-03-18T08:58:05.836Z,5.70
2023-03-18T08:59:05.835Z,3.50
2023-03-18T09:00:05.819Z,5.30
2023-03-18T09:01:05.811Z,4.00
2023-03-18T09:02:05.800Z,6.50
2023-03-18T09:03:05.825Z,4.70
2023-03-18T09:04:05.798Z,5.10
2023-03-18T09:05:05.780Z,3.70
2023-03-18T09:06:05.762Z,6.30
2023-03-18T09:07:05.758Z,3.80
2023-03-18T09:08:05.750Z,3.90
2023-03-18T09:09:05.773Z,5.00
2023-03-18T09:10:05.734Z,4.30
2023-03-18T09:11:05.724Z,5.60
2023-03-18T09:12:05.739Z,4.40
2023-03-18T09:13:05.712Z,4.50
2023-03-18T09:14:05.726Z,4.40
2023-03-18T09:15:05.693Z,4.30
2023-03-18T09:16:05.688Z,5.30
2023-03-18T09:17:05.702Z,6.50
2023-03-18T09:18:11.361Z,5.50
2023-03-18T09:19:07.717Z,4.50
2023-03-18T09:20:05.678Z,3.80
2023-03-18T09:21:05.701Z,4.90
2023-03-18T09:22:05.640Z,5.10
2023-03-18T09:23:05.624Z,3.20
2023-03-18T09:24:07.556Z,5.30
2023-03-18T09:25:06.621Z,3.90
2023-03-18T09:26:05.610Z,4.80
2023-03-18T09:27:05.619Z,5.60
2023-03-18T09:28:05.599Z,4.20
2023-03-18T09:29:05.609Z,5.30
2023-03-18T09:30:06.912Z,5.50
2023-03-18T09:31:06.629Z,3.40
2023-03-18T09:32:05.585Z,4.00
2023-03-18T09:33:05.630Z,4.50
2023-03-18T09:34:05.593Z,4.70
2023-03-18T09:35:05.568Z,4.10
2023-03-18T09:36:05.611Z,6.60
2023-03-18T09:37:05.534Z,5.80
2023-03-18T09:38:05.578Z,4.00
2023-03-18T09:39:05.574Z,3.90
2023-03-18T09:40:05.509Z,4.60
2023-03-18T09:41:05.513Z,3.60
2023-03-18T09:42:05.495Z,3.90
2023-03-18T09:43:05.494Z,6.10
2023-03-18T09:44:05.499Z,4.50
2023-03-18T09:45:05.470Z,7.50
2023-03-18T09:46:05.616Z,4.30
2023-03-18T09:47:05.578Z,3.60
2023-03-18T09:48:05.448Z,4.90
2023-03-18T09:49:05.472Z,3.50
2023-03-18T09:50:05.437Z,3.30
2023-03-18T09:51:05.426Z,3.20
2023-03-18T09:52:05.416Z,4.40
2023-03-18T09:53:05.411Z,3.80
2023-03-18T09:54:05.428Z,6.40
2023-03-18T09:55:05.410Z,3.00
2023-03-18T09:56:05.389Z,5.60
2023-03-18T09:57:05.379Z,4.20
2023-03-18T09:58:05.382Z,3.50
2023-03-18T09:59:05.389Z,3.20
2023-03-18T10:00:05.354Z,3.20
2023-03-18T10:01:05.376Z,4.70
2023-03-18T10:02:05.348Z,5.00
2023-03-18T10:03:06.556Z,3.60
2023-03-18T10:04:06.416Z,4.50
2023-03-18T10:05:05.326Z,3.00
2023-03-18T10:06:05.329Z,4.50
2023-03-18T10:07:05.312Z,2.80
2023-03-18T10:08:05.293Z,4.80
2023-03-18T10:09:05.330Z,4.10
2023-03-18T10:10:05.286Z,4.30
2023-03-18T10:11:05.283Z,5.70
2023-03-18T10:12:05.262Z,4.60
2023-03-18T10:13:05.265Z,5.30
2023-03-18T10:14:05.258Z,4.00
2023-03-18T10:15:05.280Z,2.90
2023-03-18T10:16:05.290Z,4.50
2023-03-18T10:17:05.224Z,3.30
2023-03-18T10:18:05.215Z,3.70
2023-03-18T10:19:05.224Z,3.30
2023-03-18T10:20:05.247Z,4.90
2023-03-18T10:21:05.202Z,3.50
2023-03-18T10:22:05.186Z,6.20
2023-03-18T10:23:05.181Z,5.40
2023-03-18T10:24:05.170Z,5.10
2023-03-18T10:25:05.196Z,4.80
2023-03-18T10:26:05.172Z,7.20
2023-03-18T10:27:05.154Z,6.30
2023-03-18T10:28:05.165Z,4.60
2023-03-18T10:29:05.143Z,5.40
2023-03-18T10:30:05.161Z,2.90
2023-03-18T10:31:05.151Z,3.10
2023-03-18T10:32:05.125Z,3.60
2023-03-18T10:33:05.145Z,2.70
2023-03-18T10:34:05.100Z,4.10
2023-03-18T10:35:05.129Z,5.60
2023-03-18T10:36:05.136Z,3.20
2023-03-18T10:37:05.082Z,4.10
2023-03-18T10:38:05.078Z,6.80
2023-03-18T10:39:05.061Z,1.90
2023-03-18T10:40:05.082Z,2.80
2023-03-18T10:41:05.055Z,5.70
2023-03-18T10:42:05.052Z,3.20
2023-03-18T10:43:05.046Z,3.50
2023-03-18T10:44:05.026Z,3.40
2023-03-18T10:45:05.050Z,4.50
2023-03-18T10:46:05.061Z,5.70
2023-03-18T10:47:05.052Z,3.90
2023-03-18T10:48:06.162Z,3.20
2023-03-18T10:49:05.991Z,3.30
2023-03-18T10:50:05.007Z,5.10
2023-03-18T10:51:04.978Z,4.20
2023-03-18T10:52:04.971Z,2.90
2023-03-18T10:53:04.957Z,4.60
2023-03-18T10:54:04.954Z,3.30
2023-03-18T10:55:04.978Z,2.20
2023-03-18T10:56:04.939Z,3.00
2023-03-18T10:57:04.933Z,2.70
2023-03-18T10:58:04.928Z,3.50
2023-03-18T10:59:04.919Z,4.00
2023-03-18T11:00:04.932Z,4.10
2023-03-18T11:01:04.900Z,2.70
2023-03-18T11:02:05.024Z,3.60
2023-03-18T11:03:04.923Z,3.70
2023-03-18T11:04:04.880Z,3.80
2023-03-18T11:05:04.912Z,4.70
2023-03-18T11:06:04.866Z,4.30
2023-03-18T11:07:04.859Z,4.40
2023-03-18T11:08:04.867Z,3.10
2023-03-18T11:09:04.844Z,4.80
2023-03-18T11:10:04.862Z,4.20
2023-03-18T11:11:04.822Z,3.00
2023-03-18T11:12:04.841Z,4.70
2023-03-18T11:13:04.819Z,3.20
2023-03-18T11:14:04.821Z,3.80
2023-03-18T11:15:04.924Z,3.40
2023-03-18T11:16:04.888Z,3.00
2023-03-18T11:17:04.799Z,3.30
2023-03-18T11:18:04.771Z,3.20
2023-03-18T11:19:04.762Z,3.00
2023-03-18T11:20:04.775Z,4.00
2023-03-18T11:21:04.800Z,4.10
2023-03-18T11:22:04.732Z,3.30
2023-03-18T11:23:04.728Z,3.60
2023-03-18T11:24:04.719Z,2.60
2023-03-18T11:25:04.744Z,2.90
2023-03-18T11:26:04.707Z,2.90
2023-03-18T11:27:04.697Z,2.30
2023-03-18T11:28:04.693Z,3.60
2023-03-18T11:29:04.688Z,3.30
2023-03-18T11:30:04.702Z,3.40
2023-03-18T11:31:04.709Z,2.30
2023-03-18T11:32:04.668Z,3.60
2023-03-18T11:33:04.725Z,3.50
2023-03-18T11:34:04.653Z,3.00
2023-03-18T11:35:04.668Z,2.20
2023-03-18T11:36:04.644Z,3.60
2023-03-18T11:37:04.890Z,4.30
2023-03-18T11:38:04.613Z,4.10
2023-03-18T11:39:04.603Z,3.80
2023-03-18T11:40:04.625Z,2.80
2023-03-18T11:41:04.593Z,2.70
2023-03-18T11:42:04.592Z,3.10
2023-03-18T11:43:04.568Z,3.70
2023-03-18T11:44:04.567Z,3.20
2023-03-18T11:45:04.587Z,2.40
2023-03-18T11:46:04.554Z,2.10
2023-03-18T11:47:04.591Z,4.70
2023-03-18T11:48:04.529Z,2.50
2023-03-18T11:49:04.519Z,4.40
2023-03-18T11:50:04.515Z,3.60
2023-03-18T11:51:04.532Z,3.80
2023-03-18T11:52:04.503Z,4.30
2023-03-18T11:53:04.499Z,2.60
2023-03-18T11:54:04.519Z,4.70
2023-03-18T11:55:04.483Z,4.30
2023-03-18T11:56:04.496Z,3.50
2023-03-18T11:57:04.463Z,3.70
2023-03-18T11:58:04.455Z,2.20
2023-03-18T11:59:04.442Z,3.80
2023-03-18T12:00:04.438Z,4.30
2023-03-18T12:01:04.461Z,2.40
2023-03-18T12:02:04.457Z,2.00
2023-03-18T12:03:04.408Z,3.00
2023-03-18T12:04:05.405Z,2.70
2023-03-18T12:05:04.440Z,4.40
2023-03-18T12:06:04.423Z,3.60
2023-03-18T12:07:04.388Z,2.80
2023-03-18T12:08:04.384Z,4.60
2023-03-18T12:09:04.380Z,3.20
2023-03-18T12:10:04.366Z,2.50
2023-03-18T12:11:04.386Z,4.30
2023-03-18T12:12:04.350Z,1.70
2023-03-18T12:13:04.336Z,3.80
2023-03-18T12:14:04.341Z,2.80
2023-03-18T12:15:04.331Z,3.30
2023-03-18T12:16:04.383Z,3.80
2023-03-18T12:17:04.311Z,3.60
2023-03-18T12:18:04.302Z,4.10
2023-03-18T12:19:04.299Z,3.90
2023-03-18T12:20:04.302Z,2.10
2023-03-18T12:21:04.479Z,3.40
2023-03-18T12:22:04.280Z,3.10
2023-03-18T12:23:04.268Z,2.10
2023-03-18T12:24:04.273Z,2.50
2023-03-18T12:25:04.258Z,3.50
2023-03-18T12:26:04.261Z,2.90
2023-03-18T12:27:04.234Z,3.30
2023-03-18T12:28:04.265Z,3.20
2023-03-18T12:29:04.223Z,2.60
2023-03-18T12:30:04.221Z,4.40
2023-03-18T12:31:04.225Z,4.50
2023-03-18T12:32:04.225Z,3.20
2023-03-18T12:33:04.261Z,3.90
2023-03-18T12:34:04.186Z,4.60
2023-03-18T12:35:04.167Z,2.40
2023-03-18T12:36:04.236Z,3.30
2023-03-18T12:37:04.154Z,5.40
2023-03-18T12:38:04.146Z,3.20
2023-03-18T12:39:04.159Z,5.40
2023-03-18T12:40:04.138Z,3.80
2023-03-18T12:41:04.151Z,4.50
2023-03-18T12:42:04.117Z,2.80
2023-03-18T12:43:04.117Z,3.50
2023-03-18T12:44:04.103Z,2.90
2023-03-18T12:45:04.102Z,3.70
2023-03-18T12:46:04.163Z,3.90
2023-03-18T12:47:04.083Z,2.60
2023-03-18T12:48:04.073Z,3.90
2023-03-18T12:49:04.063Z,2.80
2023-03-18T12:50:04.061Z,2.10
2023-03-18T12:51:04.083Z,3.00
2023-03-18T12:52:04.046Z,3.80
2023-03-18T12:53:04.038Z,2.30
2023-03-18T12:54:04.026Z,2.70
2023-03-18T12:55:04.031Z,2.70
2023-03-18T12:56:04.060Z,4.60
2023-03-18T12:57:04.006Z,2.90
2023-03-18T12:58:04.009Z,4.00
2023-03-18T12:59:04.000Z,4.00
2023-03-18T13:00:04.007Z,5.20
2023-03-18T13:01:04.070Z,2.80
2023-03-18T13:02:04.132Z,4.40
2023-03-18T13:03:06.899Z,5.70
2023-03-18T13:04:03.955Z,2.90
2023-03-18T13:05:03.946Z,4.80
2023-03-18T13:06:03.935Z,3.60
2023-03-18T13:07:03.960Z,4.10
2023-03-18T13:08:03.927Z,4.60
2023-03-18T13:09:03.924Z,3.20
2023-03-18T13:10:03.952Z,4.80
2023-03-18T13:11:03.894Z,3.40
2023-03-18T13:12:04.012Z,3.50
2023-03-18T13:13:03.878Z,3.60
2023-03-18T13:14:03.871Z,3.30
2023-03-18T13:15:03.866Z,3.60
2023-03-18T13:16:03.863Z,3.10